Time;durP1;ratioP1;P1;durP2;ratioP2;P2;SDS_P1;SDS_P2;PMS_P1;PMS_P2;Temp;Humidity;BMP_temperature;BMP_pressure;BME280_temperature;BME280_humidity;BME280_pressure;Samples;Min_cycle;Max_cycle;Signal;HPM_P1;HPM_P2
2021/08/15 00:01:52;;;;;;;9.52;5.03;;;;;;;18.12;70.60;100906.19;5018023;28;20071;-68
2021/08/15 00:04:20;;;;;;;15.98;5.20;;;;;;;18.03;71.39;100899.84;4985150;28;20074;-68
2021/08/15 00:06:47;;;;;;;13.25;5.05;;;;;;;17.93;72.50;100894.47;4990325;28;20156;-67
2021/08/15 00:09:14;;;;;;;10.30;4.90;;;;;;;17.87;72.93;100907.44;4990063;28;20437;-68
2021/08/15 00:11:41;;;;;;;11.15;4.35;;;;;;;17.87;73.17;100902.13;5002427;28;20100;-67
2021/08/15 00:14:09;;;;;;;15.07;5.13;;;;;;;17.75;73.87;100903.19;5000078;28;20100;-67
2021/08/15 00:16:37;;;;;;;19.00;5.78;;;;;;;17.69;74.27;100904.47;5012243;28;20060;-66
2021/08/15 00:19:05;;;;;;;11.02;4.97;;;;;;;17.58;74.92;100909.88;5021177;28;20104;-67
2021/08/15 00:21:33;;;;;;;13.68;5.60;;;;;;;17.56;75.54;100898.50;5005656;28;20152;-67
2021/08/15 00:24:01;;;;;;;15.13;5.50;;;;;;;17.43;75.97;100898.72;5027825;28;20512;-68
2021/08/15 00:26:28;;;;;;;12.27;4.78;;;;;;;17.41;76.16;100905.97;5029553;28;20457;-67
2021/08/15 00:28:55;;;;;;;11.27;5.07;;;;;;;17.29;77.07;100904.31;4997308;28;20582;-68
2021/08/15 00:31:24;;;;;;;10.50;5.68;;;;;;;17.26;77.31;100905.41;5009640;28;20081;-67
2021/08/15 00:33:52;;;;;;;10.80;5.43;;;;;;;17.19;77.76;100902.41;4992986;28;20079;-66
2021/08/15 00:36:19;;;;;;;16.60;5.85;;;;;;;17.18;78.04;100902.53;5000039;28;20054;-68
2021/08/15 00:38:46;;;;;;;9.52;5.03;;;;;;;17.13;78.28;100897.59;5006440;28;20045;-67
2021/08/15 00:41:13;;;;;;;25.45;5.40;;;;;;;17.09;78.79;100898.81;5028670;28;20124;-68
2021/08/15 00:43:41;;;;;;;10.50;4.90;;;;;;;17.07;78.99;100908.75;4989399;28;20144;-68
2021/08/15 00:46:12;;;;;;;14.15;5.57;;;;;;;17.00;79.17;100904.03;5017315;28;20364;-67
2021/08/15 00:48:40;;;;;;;11.48;5.53;;;;;;;16.94;79.51;100900.91;4965812;28;20049;-67
2021/08/15 00:51:07;;;;;;;10.13;5.18;;;;;;;16.82;80.25;100904.56;4999387;28;20305;-68
2021/08/15 00:53:38;;;;;;;11.30;5.07;;;;;;;16.79;80.32;100898.66;5013463;28;20068;-67
2021/08/15 00:56:06;;;;;;;13.50;5.82;;;;;;;16.79;80.58;100893.31;5003848;28;20133;-68
2021/08/15 00:58:34;;;;;;;14.52;5.60;;;;;;;16.75;80.93;100892.75;4984850;28;20538;-67
2021/08/15 01:01:07;;;;;;;12.20;5.20;;;;;;;16.84;80.78;100891.13;5019384;28;20050;-68
2021/08/15 01:03:35;;;;;;;9.40;5.53;;;;;;;16.76;81.01;100902.41;4979045;28;20092;-67
2021/08/15 01:06:04;;;;;;;15.27;5.63;;;;;;;16.77;81.10;100893.47;4991581;28;20580;-67
2021/08/15 01:08:31;;;;;;;12.02;4.82;;;;;;;16.83;80.88;100890.28;4999773;28;20069;-67
2021/08/15 01:11:03;;;;;;;15.77;5.55;;;;;;;16.81;80.89;100886.94;5006078;28;20136;-67
2021/08/15 01:13:32;;;;;;;9.80;4.68;;;;;;;16.79;80.35;100888.00;5013461;28;20065;-68
2021/08/15 01:16:00;;;;;;;11.02;5.20;;;;;;;16.67;81.28;100895.16;4983098;28;20079;-68
2021/08/15 01:18:31;;;;;;;10.32;4.70;;;;;;;16.75;80.29;100891.88;5014021;28;20061;-67
2021/08/15 01:21:03;;;;;;;13.73;5.10;;;;;;;16.84;80.06;100886.69;5010207;28;20084;-68
2021/08/15 01:23:31;;;;;;;11.90;4.72;;;;;;;16.75;80.09;100897.19;5000955;28;20446;-68
2021/08/15 01:26:01;;;;;;;15.18;5.15;;;;;;;16.61;79.96;100901.78;5009713;28;20053;-68
2021/08/15 01:28:29;;;;;;;10.38;4.55;;;;;;;16.50;80.64;100900.97;4999340;28;20057;-68
2021/08/15 01:30:57;;;;;;;10.00;4.50;;;;;;;16.54;79.87;100897.94;4992878;28;20062;-68
2021/08/15 01:33:33;;;;;;;13.80;5.00;;;;;;;16.51;80.18;100886.69;5005276;28;20053;-68
2021/08/15 01:36:02;;;;;;;12.88;4.38;;;;;;;16.59;79.49;100890.44;5011782;28;20057;-68
2021/08/15 01:38:32;;;;;;;8.73;3.97;;;;;;;16.40;80.23;100892.88;5019885;28;20053;-67
2021/08/15 01:41:00;;;;;;;10.80;4.22;;;;;;;16.59;79.65;100889.59;5006764;28;20157;-68
2021/08/15 01:43:28;;;;;;;16.48;5.25;;;;;;;16.53;79.17;100898.91;5013206;28;20034;-68
2021/08/15 01:45:55;;;;;;;10.35;4.47;;;;;;;16.48;79.81;100890.47;5019374;28;20053;-69
2021/08/15 01:48:23;;;;;;;11.93;4.70;;;;;;;16.48;79.16;100893.13;5007772;28;20073;-67
2021/08/15 01:50:50;;;;;;;11.55;4.50;;;;;;;16.45;80.03;100891.53;4981334;28;20074;-66
2021/08/15 01:53:21;;;;;;;9.77;4.18;;;;;;;16.41;79.98;100895.41;5011842;28;20037;-67
2021/08/15 01:55:48;;;;;;;12.63;4.15;;;;;;;16.67;79.54;100889.81;4998578;28;20133;-67
2021/08/15 01:58:15;;;;;;;9.88;4.50;;;;;;;16.65;79.47;100897.91;5012266;28;20132;-68
2021/08/15 02:00:44;;;;;;;17.30;5.90;;;;;;;16.66;79.43;100888.97;4981362;28;20423;-66
2021/08/15 02:03:12;;;;;;;11.82;4.38;;;;;;;16.74;79.28;100885.72;4984601;28;20129;-67
2021/08/15 02:05:41;;;;;;;11.35;4.28;;;;;;;16.59;79.48;100892.25;5006344;28;20057;-67
2021/08/15 02:08:09;;;;;;;13.25;4.80;;;;;;;16.68;80.08;100891.50;4977737;28;20051;-67
2021/08/15 02:10:37;;;;;;;10.93;4.60;;;;;;;16.58;79.89;100896.72;4993545;28;20080;-68
2021/08/15 02:13:05;;;;;;;9.48;4.47;;;;;;;16.34;80.52;100894.19;5026616;28;20073;-67
2021/08/15 02:15:33;;;;;;;10.27;4.45;;;;;;;16.44;80.79;100894.31;4997748;28;20087;-68
2021/08/15 02:18:01;;;;;;;17.52;5.13;;;;;;;16.45;80.51;100880.91;4982829;28;20068;-68
2021/08/15 02:20:30;;;;;;;15.23;4.72;;;;;;;16.39;81.67;100888.50;5009304;28;20128;-67
2021/08/15 02:22:57;;;;;;;13.50;4.57;;;;;;;16.51;80.19;100886.69;5023274;28;20559;-67
2021/08/15 02:25:25;;;;;;;12.50;4.05;;;;;;;16.62;80.55;100889.34;5022408;28;20081;-68
2021/08/15 02:27:53;;;;;;;9.38;4.47;;;;;;;16.68;80.56;100886.19;5026579;28;20051;-67
2021/08/15 02:30:23;;;;;;;13.23;5.38;;;;;;;16.58;80.93;100885.25;5006702;28;20103;-67
2021/08/15 02:32:51;;;;;;;14.85;5.00;;;;;;;16.59;81.31;100886.94;5002686;28;20137;-67
2021/08/15 02:35:18;;;;;;;12.88;4.80;;;;;;;16.37;81.79;100885.13;4982022;28;20069;-67
2021/08/15 02:37:48;;;;;;;13.20;5.07;;;;;;;16.22;82.54;100870.41;4992679;28;20081;-68
2021/08/15 02:40:17;;;;;;;10.10;4.88;;;;;;;16.12;83.71;100880.88;5001820;28;20136;-68
2021/08/15 02:42:45;;;;;;;14.48;4.88;;;;;;;16.09;84.31;100874.03;5010644;28;20355;-67
2021/08/15 02:45:14;;;;;;;12.55;4.13;;;;;;;16.12;84.24;100876.44;5014946;28;20157;-67
2021/08/15 02:47:41;;;;;;;11.15;4.35;;;;;;;16.16;84.27;100872.56;4981771;28;20048;-68
2021/08/15 02:50:10;;;;;;;10.55;4.32;;;;;;;16.10;84.81;100873.06;5003744;28;20092;-66
2021/08/15 02:52:37;;;;;;;9.10;4.47;;;;;;;16.16;84.93;100871.72;5008070;28;20117;-66
2021/08/15 02:55:06;;;;;;;19.45;4.90;;;;;;;16.34;84.46;100866.78;5011087;28;20128;-68
2021/08/15 02:57:33;;;;;;;11.80;4.60;;;;;;;16.15;84.42;100862.91;4994107;28;20417;-67
2021/08/15 03:00:00;;;;;;;12.25;5.00;;;;;;;15.81;86.20;100874.47;5008362;28;20065;-67
2021/08/15 03:02:27;;;;;;;13.60;5.28;;;;;;;15.64;87.71;100867.81;5001727;28;20057;-68
2021/08/15 03:04:55;;;;;;;12.52;4.65;;;;;;;15.62;88.21;100869.69;5014820;28;20049;-67
2021/08/15 03:07:23;;;;;;;11.38;5.60;;;;;;;15.76;88.41;100863.34;5020925;28;20150;-67
2021/08/15 03:09:50;;;;;;;20.02;4.90;;;;;;;15.90;87.20;100857.84;5002220;28;20145;-66
2021/08/15 03:12:17;;;;;;;15.27;4.93;;;;;;;15.82;87.25;100861.06;4995987;28;20068;-67
2021/08/15 03:14:44;;;;;;;12.82;4.97;;;;;;;15.59;88.41;100862.81;5017880;28;20088;-67
2021/08/15 03:17:12;;;;;;;11.75;6.13;;;;;;;15.37;89.22;100863.59;4979521;28;20063;-68
2021/08/15 03:19:39;;;;;;;12.95;5.90;;;;;;;15.31;90.22;100855.22;4992710;28;20050;-66
2021/08/15 03:22:07;;;;;;;12.45;4.85;;;;;;;15.41;90.68;100857.09;5020058;28;20054;-66
2021/08/15 03:24:34;;;;;;;12.48;4.90;;;;;;;15.38;91.02;100857.31;5009341;28;20133;-66
2021/08/15 03:27:01;;;;;;;18.70;5.13;;;;;;;15.50;89.97;100860.00;5010997;23;20061;-80
2021/08/15 03:29:29;;;;;;;13.07;4.57;;;;;;;15.50;90.43;100860.00;4976619;28;20073;-81
2021/08/15 03:31:57;;;;;;;13.50;6.35;;;;;;;15.58;90.02;100852.28;4985568;28;20054;-80
2021/08/15 03:34:31;;;;;;;14.50;5.97;;;;;;;15.82;89.09;100852.28;5000679;28;20026;-80
2021/08/15 03:37:41;;;;;;;17.08;6.18;;;;;;;15.69;88.84;100852.38;5020223;28;20046;-78
2021/08/15 03:40:32;;;;;;;13.75;5.78;;;;;;;15.33;90.63;100854.16;4993472;28;20065;-79
2021/08/15 03:43:06;;;;;;;12.85;4.88;;;;;;;15.21;91.96;100849.78;5023629;28;20049;-79
2021/08/15 03:45:39;;;;;;;10.23;5.38;;;;;;;15.29;91.65;100858.00;4992601;28;20061;-79
2021/08/15 03:48:16;;;;;;;12.98;5.18;;;;;;;15.18;92.12;100856.16;5004775;28;20050;-79
2021/08/15 03:50:48;;;;;;;10.07;4.82;;;;;;;15.22;92.10;100856.78;4974861;28;20105;-79
2021/08/15 03:53:17;;;;;;;9.70;4.95;;;;;;;15.30;92.29;100861.50;4994747;28;20048;-80
2021/08/15 03:55:44;;;;;;;13.50;5.30;;;;;;;15.61;90.59;100860.03;5007177;28;20518;-79
2021/08/15 03:58:12;;;;;;;13.45;5.22;;;;;;;15.55;89.91;100861.34;4989461;28;20050;-79
2021/08/15 04:00:42;;;;;;;15.57;6.00;;;;;;;15.39;91.24;100859.00;4990441;28;20046;-78
2021/08/15 04:03:11;;;;;;;15.57;4.55;;;;;;;15.72;89.84;100862.75;4976003;28;20088;-79
2021/08/15 04:05:38;;;;;;;13.93;4.93;;;;;;;15.68;89.65;100859.50;4998476;28;20037;-80
2021/08/15 04:08:05;;;;;;;19.10;6.07;;;;;;;15.64;90.31;100859.84;4989636;28;20042;-79
2021/08/15 04:10:33;;;;;;;14.50;4.25;;;;;;;15.56;90.40;100857.72;5022780;28;20044;-80
2021/08/15 04:13:00;;;;;;;11.02;4.72;;;;;;;15.82;88.60;100862.88;4998294;28;20030;-81
2021/08/15 04:15:28;;;;;;;16.27;5.43;;;;;;;15.72;89.39;100868.06;5010821;28;20034;-80
2021/08/15 04:17:55;;;;;;;16.00;5.30;;;;;;;15.77;89.31;100865.91;4986502;28;20053;-81
2021/08/15 04:20:23;;;;;;;10.05;4.40;;;;;;;15.85;88.78;100859.97;5023344;28;20053;-81
2021/08/15 04:22:50;;;;;;;25.00;5.70;;;;;;;16.09;87.59;100862.56;5018338;28;20061;-79
2021/08/15 04:25:18;;;;;;;16.75;5.85;;;;;;;16.13;86.79;100856.88;5028172;28;20033;-80
2021/08/15 04:27:45;;;;;;;14.38;5.82;;;;;;;16.19;86.73;100859.03;5005963;28;20131;-79
2021/08/15 04:30:12;;;;;;;19.52;5.38;;;;;;;16.40;85.87;100858.34;5006347;28;20041;-80
2021/08/15 04:32:50;;;;;;;14.25;4.35;;;;;;;16.54;85.50;100854.56;5010536;28;20046;-80
2021/08/15 04:35:32;;;;;;;11.73;5.05;;;;;;;16.62;84.67;100855.66;5014051;28;20057;-80
2021/08/15 04:38:00;;;;;;;11.10;4.50;;;;;;;16.72;84.55;100855.78;5021375;28;20084;-80
2021/08/15 04:40:27;;;;;;;15.57;6.40;;;;;;;16.65;84.73;100852.72;5018311;28;20057;-81
2021/08/15 04:42:54;;;;;;;14.85;4.50;;;;;;;16.77;85.17;100853.59;5011216;28;20061;-82
2021/08/15 04:45:22;;;;;;;10.75;5.00;;;;;;;16.96;83.88;100855.56;5002040;28;20045;-82
2021/08/15 04:47:49;;;;;;;13.68;5.05;;;;;;;17.17;82.37;100845.00;4997053;28;20034;-81
2021/08/15 04:50:17;;;;;;;13.07;4.50;;;;;;;17.93;79.48;100843.00;5009909;28;20044;-82
2021/08/15 04:52:44;;;;;;;11.15;3.80;;;;;;;19.44;72.61;100845.44;4998935;28;20042;-81
2021/08/15 04:55:12;;;;;;;12.98;4.18;;;;;;;20.85;68.15;100839.16;5004603;28;20036;-81
2021/08/15 04:57:39;;;;;;;10.35;4.45;;;;;;;22.15;61.06;100831.31;5006513;28;20093;-81
2021/08/15 05:00:07;;;;;;;11.13;4.38;;;;;;;23.14;58.03;100833.28;5003328;28;20033;-82
2021/08/15 05:02:36;;;;;;;12.10;3.60;;;;;;;24.34;53.08;100829.72;5024306;28;20206;-81
2021/08/15 05:05:04;;;;;;;10.15;4.45;;;;;;;25.25;50.29;100822.81;4984460;28;20019;-82
2021/08/15 05:07:31;;;;;;;10.70;3.88;;;;;;;25.36;49.19;100826.94;5035457;28;20567;-81
2021/08/15 05:09:58;;;;;;;9.20;3.97;;;;;;;25.83;48.06;100831.22;4995006;28;20038;-82
2021/08/15 05:12:26;;;;;;;11.30;3.78;;;;;;;25.95;46.29;100833.28;5009472;28;20056;-80
2021/08/15 05:14:53;;;;;;;10.38;4.32;;;;;;;26.80;44.33;100826.47;5003064;28;20072;-82
2021/08/15 05:17:20;;;;;;;7.70;3.80;;;;;;;27.50;42.57;100832.97;4995271;28;20107;-80
2021/08/15 05:19:57;;;;;;;12.38;3.83;;;;;;;26.89;43.19;100832.59;4993672;28;20101;-81
2021/08/15 05:22:26;;;;;;;10.48;3.47;;;;;;;26.37;45.04;100834.44;4991667;28;20161;-81
2021/08/15 05:24:53;;;;;;;14.45;4.25;;;;;;;26.75;43.85;100831.63;5002663;28;20045;-79
2021/08/15 05:27:20;;;;;;;14.00;4.05;;;;;;;27.48;42.21;100838.56;5003913;28;20038;-81
2021/08/15 05:29:48;;;;;;;8.00;3.40;;;;;;;26.46;44.07;100832.50;4999648;28;20038;-82
2021/08/15 05:32:15;;;;;;;14.13;4.45;;;;;;;25.63;45.94;100831.72;5017891;28;20255;-81
2021/08/15 05:34:42;;;;;;;12.68;4.45;;;;;;;25.47;46.23;100831.88;5001608;28;20046;-80
2021/08/15 05:37:09;;;;;;;11.55;5.03;;;;;;;24.62;48.48;100837.34;4997926;28;20054;-81
2021/08/15 05:39:37;;;;;;;10.63;4.20;;;;;;;24.16;49.67;100838.03;5000205;28;20038;-81
2021/08/15 05:42:04;;;;;;;10.05;3.97;;;;;;;23.90;50.68;100849.03;5001612;28;20057;-81
2021/08/15 05:44:31;;;;;;;14.25;4.60;;;;;;;23.44;52.24;100847.91;4998022;28;20061;-81
2021/08/15 05:47:04;;;;;;;13.73;4.30;;;;;;;23.68;51.63;100847.06;4982232;28;20044;-80
2021/08/15 05:49:31;;;;;;;8.95;4.15;;;;;;;24.37;50.37;100848.25;4978205;28;20057;-80
2021/08/15 05:51:59;;;;;;;11.20;3.92;;;;;;;26.06;46.22;100845.44;4989861;28;20054;-80
2021/08/15 05:54:26;;;;;;;9.65;3.92;;;;;;;27.63;42.26;100845.75;4994374;28;20464;-80
2021/08/15 05:56:54;;;;;;;9.68;4.38;;;;;;;27.46;41.65;100850.59;5029517;28;20030;-81
2021/08/15 05:59:21;;;;;;;14.98;4.55;;;;;;;28.65;39.53;100840.53;4993926;28;20033;-80
2021/08/15 06:01:48;;;;;;;12.98;3.67;;;;;;;29.15;38.61;100849.22;4974801;28;20046;-80
2021/08/15 06:04:16;;;;;;;8.80;3.80;;;;;;;30.26;35.97;100849.34;5014207;28;20038;-81
2021/08/15 06:06:44;;;;;;;9.38;3.85;;;;;;;31.45;33.97;100836.13;5015474;28;20045;-83
2021/08/15 06:09:11;;;;;;;11.45;4.20;;;;;;;31.04;34.86;100842.09;5015661;28;20049;-82
2021/08/15 06:11:38;;;;;;;11.70;3.88;;;;;;;31.21;34.32;100845.94;5005416;28;20049;-82
2021/08/15 06:14:06;;;;;;;11.55;4.53;;;;;;;31.09;34.17;100842.25;5036916;28;20025;-81
2021/08/15 06:16:33;;;;;;;12.05;4.20;;;;;;;30.87;34.46;100847.19;5001349;28;20037;-82
2021/08/15 06:19:01;;;;;;;12.07;4.53;;;;;;;30.30;35.21;100851.63;5010346;28;20041;-82
2021/08/15 06:21:28;;;;;;;11.35;4.45;;;;;;;29.65;36.24;100846.13;4984304;28;20053;-81
2021/08/15 06:23:55;;;;;;;10.65;4.25;;;;;;;30.26;35.30;100851.22;5014358;28;20061;-80
2021/08/15 06:26:23;;;;;;;15.88;5.25;;;;;;;30.97;34.50;100844.81;4994710;28;20046;-81
2021/08/15 06:28:51;;;;;;;9.07;4.15;;;;;;;31.14;34.10;100839.69;4979898;28;20515;-80
2021/08/15 06:31:22;;;;;;;8.00;3.45;;;;;;;30.64;35.03;100845.84;5013469;28;20061;-82
2021/08/15 06:33:50;;;;;;;12.70;3.88;;;;;;;31.18;33.88;100847.19;5000266;28;20129;-80
2021/08/15 06:36:18;;;;;;;12.95;4.50;;;;;;;32.12;33.28;100842.59;4999555;28;20035;-82
2021/08/15 06:38:45;;;;;;;13.48;4.70;;;;;;;32.22;32.54;100845.63;4982307;28;20577;-81
2021/08/15 06:41:12;;;;;;;11.93;4.30;;;;;;;31.67;33.47;100845.56;5001181;28;20061;-84
2021/08/15 06:43:40;;;;;;;17.30;4.72;;;;;;;32.46;31.63;100848.50;4999753;28;20022;-82
2021/08/15 06:46:07;;;;;;;9.38;4.63;;;;;;;32.64;31.53;100850.34;5017377;28;20024;-82
2021/08/15 06:48:36;;;;;;;11.15;4.38;;;;;;;32.47;31.70;100845.56;4997345;28;20304;-82
2021/08/15 06:51:04;;;;;;;9.68;4.43;;;;;;;31.85;32.86;100839.34;5016702;28;20034;-83
2021/08/15 06:53:32;;;;;;;11.82;4.57;;;;;;;31.34;33.52;100845.00;5012847;28;20080;-82
2021/08/15 06:56:01;;;;;;;11.40;4.28;;;;;;;31.20;34.24;100839.63;5015763;28;20080;-83
2021/08/15 06:58:28;;;;;;;11.25;5.10;;;;;;;31.05;34.41;100838.31;4992837;28;20045;-83
2021/08/15 07:00:58;;;;;;;9.65;4.10;;;;;;;30.54;34.85;100845.47;5004847;28;20046;-82
2021/08/15 07:03:26;;;;;;;13.32;4.68;;;;;;;30.62;34.72;100844.38;4995526;28;20032;-82
2021/08/15 07:05:53;;;;;;;8.32;3.90;;;;;;;30.37;35.60;100844.28;5003256;28;20052;-83
2021/08/15 07:08:20;;;;;;;9.52;4.07;;;;;;;29.89;36.49;100842.72;4999806;28;20064;-82
2021/08/15 07:10:48;;;;;;;13.90;5.20;;;;;;;29.37;37.33;100857.16;4988355;28;20046;-82
2021/08/15 07:13:19;;;;;;;11.93;4.93;;;;;;;29.06;37.85;100853.16;4991710;28;20034;-82
2021/08/15 07:15:47;;;;;;;10.70;4.13;;;;;;;30.40;36.32;100852.03;5003500;28;20040;-82
2021/08/15 07:18:15;;;;;;;14.18;4.55;;;;;;;30.85;34.95;100849.31;5016950;28;20049;-83
2021/08/15 07:20:43;;;;;;;11.25;5.18;;;;;;;30.32;36.54;100855.81;4984946;28;20048;-83
2021/08/15 07:23:10;;;;;;;13.38;4.90;;;;;;;29.17;37.79;100851.72;4998594;28;20109;-83
2021/08/15 07:25:37;;;;;;;13.13;4.68;;;;;;;27.98;40.15;100847.47;4985063;28;20021;-82
2021/08/15 07:28:05;;;;;;;11.13;4.85;;;;;;;28.23;40.12;100849.69;5004870;28;20050;-83
2021/08/15 07:30:33;;;;;;;10.85;4.47;;;;;;;28.94;38.26;100846.63;5001191;28;20049;-82
2021/08/15 07:33:05;;;;;;;14.77;4.97;;;;;;;29.09;38.66;100843.75;4989237;28;20238;-82
2021/08/15 07:35:36;;;;;;;12.57;4.57;;;;;;;29.47;37.16;100846.72;4999718;28;20049;-82
2021/08/15 07:38:04;;;;;;;11.10;4.57;;;;;;;28.44;38.92;100854.19;4975244;28;20029;-82
2021/08/15 07:40:32;;;;;;;11.32;5.22;;;;;;;28.67;38.64;100846.56;4994289;28;20050;-82
2021/08/15 07:42:59;;;;;;;14.07;4.50;;;;;;;29.75;36.66;100843.81;4978038;28;21150;-82
2021/08/15 07:45:29;;;;;;;9.75;3.95;;;;;;;31.76;32.48;100852.38;5012206;28;20118;-83
2021/08/15 07:47:57;;;;;;;11.32;3.90;;;;;;;33.13;30.55;100848.41;4974721;28;20143;-81
2021/08/15 07:50:25;;;;;;;9.10;4.22;;;;;;;32.92;29.69;100850.63;5006462;28;20041;-82
2021/08/15 07:52:52;;;;;;;11.38;4.63;;;;;;;33.20;30.06;100843.69;4988949;28;20051;-81
2021/08/15 07:55:21;;;;;;;9.10;4.20;;;;;;;33.23;30.12;100837.75;5006725;28;20058;-82
2021/08/15 07:57:48;;;;;;;9.77;3.97;;;;;;;31.57;31.34;100833.50;4998406;28;20067;-83
2021/08/15 08:00:16;;;;;;;9.32;4.28;;;;;;;29.92;34.44;100831.44;4980210;28;20031;-83
2021/08/15 08:03:07;;;;;;;11.13;4.32;;;;;;;30.93;32.82;100832.72;4974381;28;20065;-82
2021/08/15 08:05:35;;;;;;;10.27;4.35;;;;;;;31.51;32.18;100835.22;4992146;28;20062;-82
2021/08/15 08:08:03;;;;;;;8.20;3.88;;;;;;;31.26;32.63;100836.06;5000740;28;20026;-81
2021/08/15 08:10:30;;;;;;;11.80;4.70;;;;;;;31.63;31.62;100830.72;4993879;28;20110;-83
2021/08/15 08:13:00;;;;;;;9.32;4.07;;;;;;;31.01;32.46;100835.19;4997325;28;20061;-81
2021/08/15 08:15:28;;;;;;;11.20;4.10;;;;;;;31.36;31.64;100838.31;4978387;28;20056;-82
2021/08/15 08:17:55;;;;;;;9.00;4.75;;;;;;;31.80;31.55;100830.16;5012983;28;20061;-80
2021/08/15 08:20:26;;;;;;;10.88;4.00;;;;;;;33.03;29.82;100823.63;5010919;28;20509;-82
2021/08/15 08:22:53;;;;;;;12.82;4.10;;;;;;;33.38;29.29;100826.41;4990099;28;20049;-81
2021/08/15 08:25:21;;;;;;;10.77;4.32;;;;;;;33.69;28.92;100826.09;4979904;28;20113;-82
2021/08/15 08:27:49;;;;;;;11.02;4.93;;;;;;;31.88;30.94;100832.59;4974470;28;20046;-82
2021/08/15 08:30:16;;;;;;;9.38;4.05;;;;;;;31.68;31.89;100822.72;5001052;28;20088;-83
2021/08/15 08:32:43;;;;;;;10.48;4.45;;;;;;;32.35;30.67;100819.28;4988770;28;20056;-82
2021/08/15 08:35:11;;;;;;;9.10;3.88;;;;;;;32.79;30.36;100809.91;4990845;28;20864;-82
2021/08/15 08:37:39;;;;;;;8.18;3.88;;;;;;;34.28;27.75;100826.00;4986098;28;20077;-82
2021/08/15 08:40:07;;;;;;;10.38;4.20;;;;;;;32.50;29.57;100820.56;4992829;28;20080;-81
2021/08/15 08:42:34;;;;;;;7.05;4.00;;;;;;;30.34;32.13;100799.38;4996686;28;21549;-82
2021/08/15 08:45:02;;;;;;;8.35;3.90;;;;;;;28.55;35.72;100798.59;5011004;28;20041;-83
2021/08/15 08:47:31;;;;;;;9.25;4.60;;;;;;;27.98;37.19;100804.19;4992443;28;20092;-82
2021/08/15 08:49:59;;;;;;;6.72;4.13;;;;;;;27.16;38.94;100796.72;5006504;28;20041;-82
2021/08/15 08:52:31;;;;;;;10.02;4.43;;;;;;;27.25;39.74;100789.31;4970829;28;20043;-80
2021/08/15 08:55:00;;;;;;;8.23;4.60;;;;;;;27.41;39.49;100793.56;4995644;28;20096;-82
2021/08/15 08:57:27;;;;;;;6.28;3.72;;;;;;;27.43;38.65;100791.53;4992901;28;20046;-83
2021/08/15 08:59:54;;;;;;;11.75;4.90;;;;;;;27.15;40.10;100792.31;4993685;28;20145;-82
2021/08/15 09:02:22;;;;;;;7.75;4.13;;;;;;;26.46;42.07;100779.34;5003569;28;20057;-82
2021/08/15 09:04:49;;;;;;;9.32;4.78;;;;;;;26.80;41.62;100774.31;4975489;28;20500;-83
2021/08/15 09:07:19;;;;;;;9.50;3.80;;;;;;;26.66;40.78;100785.00;4992495;28;20026;-82
2021/08/15 09:09:52;;;;;;;11.38;5.00;;;;;;;26.67;40.46;100785.81;4989119;28;20049;-82
2021/08/15 09:12:20;;;;;;;10.25;4.88;;;;;;;26.17;41.82;100782.94;4993793;28;20057;-82
2021/08/15 09:14:47;;;;;;;8.60;4.63;;;;;;;26.38;40.83;100776.72;4998774;28;20059;-81
2021/08/15 09:17:15;;;;;;;12.07;4.70;;;;;;;26.22;41.41;100772.41;4993261;28;20313;-81
2021/08/15 09:19:47;;;;;;;9.25;3.80;;;;;;;26.51;41.54;100773.38;4988441;28;20041;-83
2021/08/15 09:22:20;;;;;;;8.10;4.07;;;;;;;26.39;41.28;100774.91;4992182;28;20086;-81
2021/08/15 09:24:58;;;;;;;8.15;3.97;;;;;;;26.38;40.99;100774.03;5021560;23;20029;-66
2021/08/15 09:27:30;;;;;;;12.18;4.45;;;;;;;26.36;40.55;100786.06;5002325;28;20128;-67
2021/08/15 09:30:12;;;;;;;6.75;3.80;;;;;;;26.34;41.38;100780.00;5007520;28;20443;-68
2021/08/15 09:33:10;;;;;;;11.13;4.13;;;;;;;26.66;40.41;100779.59;4991332;28;20052;-66
2021/08/15 09:35:38;;;;;;;10.45;4.30;;;;;;;25.95;41.78;100776.63;5044735;23;20076;-80
2021/08/15 09:38:10;;;;;;;9.55;4.45;;;;;;;26.49;40.22;100778.16;4997938;28;20095;-82
2021/08/15 09:40:45;;;;;;;6.90;4.15;;;;;;;26.68;39.50;100766.72;5030408;28;20041;-83
2021/08/15 09:43:21;;;;;;;8.10;3.65;;;;;;;26.88;38.01;100760.66;5027844;28;20482;-86
2021/08/15 09:45:56;;;;;;;9.65;4.38;;;;;;;25.50;40.61;100762.28;4993499;28;20121;-81
2021/08/15 09:48:33;;;;;;;12.30;4.35;;;;;;;25.55;41.09;100755.50;5034041;28;20121;-86
2021/08/15 09:51:22;;;;;;;12.32;3.65;;;;;;;25.71;40.77;100753.47;4989696;28;20053;-83
2021/08/15 09:53:49;;;;;;;8.68;4.38;;;;;;;25.97;40.81;100746.75;5032947;28;20527;-83
2021/08/15 09:56:31;;;;;;;7.55;3.70;;;;;;;26.60;39.67;100744.41;5032861;28;20045;-81
2021/08/15 09:59:16;;;;;;;5.38;3.50;;;;;;;26.80;38.85;100739.22;4992507;28;20503;-82
2021/08/15 10:01:47;;;;;;;8.43;3.92;;;;;;;26.93;38.22;100742.03;4997260;28;20492;-82
2021/08/15 10:04:16;;;;;;;6.63;3.95;;;;;;;26.96;37.81;100731.66;5020988;28;20220;-81
2021/08/15 10:06:44;;;;;;;7.35;4.10;;;;;;;26.45;39.23;100728.28;5020740;28;20099;-80
2021/08/15 10:09:12;;;;;;;6.72;4.25;;;;;;;26.80;38.36;100718.44;5019522;28;20034;-82
2021/08/15 10:11:41;;;;;;;8.80;3.90;;;;;;;26.89;38.82;100721.84;5042919;28;20037;-79
2021/08/15 10:14:10;;;;;;;6.47;3.58;;;;;;;26.56;39.30;100711.53;5026686;28;20111;-84
2021/08/15 10:16:40;;;;;;;9.77;3.72;;;;;;;26.28;39.23;100708.75;5017004;28;20084;-81
2021/08/15 10:19:10;;;;;;;8.45;3.63;;;;;;;26.29;39.57;100710.41;5040976;28;20064;-79
2021/08/15 10:21:53;;;;;;;7.13;3.75;;;;;;;26.20;39.91;100715.06;5029891;28;20632;-80
2021/08/15 10:24:21;;;;;;;8.10;4.03;;;;;;;25.67;40.72;100706.31;5010860;28;20045;-79
2021/08/15 10:26:53;;;;;;;6.75;3.33;;;;;;;26.20;39.40;100716.94;4991311;28;20103;-82
2021/08/15 10:29:37;;;;;;;14.77;4.32;;;;;;;26.29;38.89;100723.06;5038128;28;20045;-79
2021/08/15 10:32:21;;;;;;;10.10;4.13;;;;;;;26.75;38.71;100718.19;5020315;28;20157;-82
2021/08/15 10:34:50;;;;;;;9.68;4.60;;;;;;;27.05;38.48;100723.41;5040340;28;20406;-85
2021/08/15 10:37:26;;;;;;;7.22;3.58;;;;;;;26.79;38.66;100729.41;5035481;28;20038;-79
2021/08/15 10:39:56;;;;;;;7.53;3.70;;;;;;;26.96;37.91;100725.41;5037863;28;20030;-86
2021/08/15 10:42:38;;;;;;;9.57;4.07;;;;;;;27.57;36.23;100717.56;5045926;28;20030;-81
2021/08/15 10:45:07;;;;;;;7.78;3.90;;;;;;;27.55;35.97;100708.81;5035103;28;20116;-79
2021/08/15 10:47:40;;;;;;;8.40;4.07;;;;;;;27.77;36.01;100705.00;5015543;28;20362;-80
2021/08/15 10:50:08;;;;;;;8.10;4.47;;;;;;;27.89;35.91;100691.75;5013856;28;20079;-80
2021/08/15 10:52:43;;;;;;;11.00;4.22;;;;;;;27.61;36.71;100682.84;5031024;28;20073;-82
2021/08/15 10:55:15;;;;;;;11.27;4.63;;;;;;;27.81;35.94;100688.38;4999455;28;20037;-81
2021/08/15 10:57:53;;;;;;;7.80;4.10;;;;;;;28.06;35.04;100689.53;5022923;28;20141;-83
2021/08/15 11:00:31;;;;;;;12.38;4.53;;;;;;;27.73;35.06;100692.91;5039211;28;20049;-80
2021/08/15 11:03:00;;;;;;;9.60;4.97;;;;;;;27.09;36.73;100697.69;5029254;28;20560;-79
2021/08/15 11:05:38;;;;;;;12.15;5.45;;;;;;;27.00;37.05;100694.28;5010174;28;20054;-81
2021/08/15 11:08:34;;;;;;;9.18;4.45;;;;;;;26.62;38.30;100691.91;5026159;28;20121;-80
2021/08/15 11:11:12;;;;;;;;;;;;;;;26.09;40.38;100691.31;5033128;28;20525;-80
2021/08/15 11:13:39;;;;;;;6.95;4.03;;;;;;;26.09;40.17;100687.78;5008137;28;19925;-80
2021/08/15 11:16:25;;;;;;;8.70;4.70;;;;;;;26.13;40.36;100695.28;5025007;28;20497;-83
2021/08/15 11:19:08;;;;;;;8.85;4.65;;;;;;;26.15;39.37;100682.44;5017048;28;20065;-82
2021/08/15 11:22:11;;;;;;;9.38;4.88;;;;;;;26.22;39.73;100680.66;5036613;28;20037;-84
2021/08/15 11:24:45;;;;;;;10.50;4.63;;;;;;;26.00;40.82;100670.88;5028777;28;20041;-82
2021/08/15 11:27:23;;;;;;;10.57;6.13;;;;;;;25.97;41.47;100679.31;5006133;28;20134;-80
2021/08/15 11:29:51;;;;;;;12.30;5.07;;;;;;;26.04;41.00;100674.03;5025773;28;20355;-79
2021/08/15 11:32:26;;;;;;;8.80;4.68;;;;;;;26.06;40.82;100675.50;5005505;28;20069;-79